.
WxDataArchive / Data Records for 2010-09-18
2010-09-17 September 2010 2010-09-19

Data Records for Saturday, 18 September 2010

Time	Temp	Chill	HIndex	Humid	Dewpt	 Wind 	HiWind	WindDir	Rain 	Barom 
-----	----	-----	------	-----	-----	------	------	-------	-----	----- 
00:00	55.9	55.9	55.9	78	49.1	0	0	---	0.00	30.142 
00:05	55.7	55.7	55.7	78	48.9	0	0	---	0.00	30.142 
00:10	55.4	55.4	55.4	79	49.0	0	0	---	0.00	30.142 
00:15	55.3	55.3	55.3	79	48.9	0	0	---	0.00	30.135 
00:20	55.3	55.3	55.3	79	48.9	0	0	---	0.00	30.135 
00:25	55.3	55.3	55.3	79	48.9	0	0	---	0.00	30.135 
00:30	55.3	55.3	55.3	79	48.9	0	0	---	0.00	30.139 
00:35	55.3	55.3	55.3	79	48.9	0	0	---	0.00	30.139 
00:40	55.3	55.3	55.3	79	48.9	0	0	---	0.00	30.139 
00:45	55.3	55.3	55.3	79	48.9	0	0	---	0.00	30.137 
00:50	55.1	55.1	55.1	79	48.7	0	0	---	0.00	30.137 
00:55	55.1	55.1	55.1	80	49.0	0	0	---	0.00	30.137 
01:00	55.0	55.0	55.0	80	48.9	0	0	---	0.00	30.133 
01:05	54.8	54.8	54.8	80	48.7	0	0	---	0.00	30.133 
01:10	54.8	54.8	54.8	80	48.7	0	0	---	0.00	30.133 
01:15	54.7	54.7	54.7	80	48.7	0	0	---	0.00	30.130 
01:20	54.5	54.5	54.5	81	48.8	0	0	---	0.00	30.130 
01:25	54.4	54.4	54.4	81	48.7	0	0	---	0.00	30.130 
01:30	54.2	54.2	54.2	81	48.5	0	0	---	0.00	30.131 
01:35	53.9	53.9	53.9	82	48.5	0	0	---	0.00	30.131 
01:40	53.8	53.8	53.8	83	48.8	0	0	---	0.00	30.131 
01:45	53.5	53.5	53.5	83	48.5	0	0	---	0.00	30.133 
01:50	53.3	53.3	53.3	84	48.6	0	0	---	0.00	30.133 
01:55	53.2	53.2	53.2	84	48.5	0	0	---	0.00	30.133 
02:00	53.1	53.1	53.1	84	48.4	0	0	---	0.00	30.135 
02:05	52.9	52.9	52.9	84	48.2	0	0	---	0.00	30.135 
02:10	52.8	52.8	52.8	85	48.4	0	0	---	0.00	30.135 
02:15	52.6	52.6	52.6	85	48.2	0	0	---	0.00	30.132 
02:20	52.5	52.5	52.5	85	48.1	0	0	---	0.00	30.132 
02:25	52.3	52.3	52.3	86	48.2	0	0	---	0.00	30.132 
02:30	52.2	52.2	52.2	86	48.1	0	0	---	0.00	30.132 
02:35	52.0	52.0	52.0	87	48.3	0	0	---	0.00	30.132 
02:40	52.0	52.0	52.0	87	48.3	0	0	---	0.00	30.132 
02:45	51.9	51.9	51.9	88	48.5	0	0	---	0.00	30.137 
02:50	51.7	51.7	51.7	88	48.3	0	0	---	0.00	30.137 
02:55	51.7	51.7	51.7	88	48.3	0	0	---	0.00	30.137 
03:00	51.6	51.6	51.6	88	48.2	0	0	---	0.00	30.140 
03:05	51.6	51.6	51.6	88	48.2	0	0	---	0.00	30.140 
03:10	51.4	51.4	51.4	89	48.3	0	0	---	0.00	30.140 
03:15	51.4	51.4	51.4	89	48.3	0	0	---	0.00	30.140 
03:20	51.3	51.3	51.3	89	48.2	0	0	---	0.00	30.140 
03:25	51.1	51.1	51.1	89	48.0	0	0	---	0.00	30.140 
03:30	51.1	51.1	51.1	89	48.0	0	0	---	0.00	30.143 
03:35	51.0	51.0	51.0	90	48.2	0	0	---	0.00	30.143 
03:40	51.0	51.0	51.0	90	48.2	0	0	---	0.00	30.143 
03:45	50.8	50.8	50.8	90	48.0	0	0	---	0.00	30.145 
03:50	50.8	50.8	50.8	90	48.0	0	0	---	0.00	30.145 
03:55	50.7	50.7	50.7	90	47.9	0	0	---	0.00	30.145 
04:00	50.5	50.5	50.5	90	47.7	0	0	---	0.00	30.144 
04:05	50.4	50.4	50.4	90	47.6	0	0	---	0.00	30.144 
04:10	50.4	50.4	50.4	91	47.9	0	0	---	0.00	30.144 
04:15	50.4	50.4	50.4	91	47.9	0	0	---	0.00	30.138 
04:20	50.2	50.2	50.2	91	47.7	0	0	---	0.00	30.138 
04:25	50.2	50.2	50.2	91	47.7	0	0	---	0.00	30.138 
04:30	50.2	50.2	50.2	91	47.7	0	0	---	0.00	30.133 
04:35	50.2	50.2	50.2	92	48.0	0	0	---	0.00	30.133 
04:40	50.2	50.2	50.2	92	48.0	0	0	---	0.00	30.133 
04:45	50.2	50.2	50.2	92	48.0	0	0	---	0.00	30.134 
04:50	50.2	50.2	50.2	92	48.0	0	0	---	0.00	30.134 
04:55	50.1	50.1	50.1	92	47.9	0	0	---	0.00	30.134 
05:00	50.1	50.1	50.1	92	47.9	0	0	---	0.00	30.142 
05:05	50.1	50.1	50.1	92	47.9	0	0	---	0.00	30.142 
05:10	49.9	49.9	49.9	92	47.7	0	0	---	0.00	30.142 
05:15	49.9	49.9	49.9	92	47.7	0	0	---	0.00	30.133 
05:20	49.8	49.8	49.8	92	47.6	0	0	---	0.00	30.133 
05:25	49.8	49.8	49.8	93	47.9	0	0	---	0.00	30.133 
05:30	49.6	49.6	49.6	93	47.7	0	0	---	0.00	30.129 
05:35	49.6	49.6	49.6	93	47.7	0	0	---	0.00	30.129 
05:40	49.6	49.6	49.6	93	47.7	0	0	---	0.00	30.129 
05:45	49.5	49.5	49.5	93	47.6	0	0	---	0.00	30.123 
05:50	49.5	49.5	49.5	93	47.6	0	0	---	0.00	30.123 
05:55	49.5	49.5	49.5	93	47.6	0	0	---	0.00	30.123 
06:00	49.5	49.5	49.5	93	47.6	0	0	---	0.00	30.122 
06:05	49.4	49.4	49.4	93	47.5	0	0	---	0.00	30.122 
06:10	49.4	49.4	49.4	93	47.5	0	0	---	0.00	30.122 
06:15	49.2	49.2	49.2	93	47.3	0	0	---	0.00	30.118 
06:20	49.2	49.2	49.2	93	47.3	0	0	---	0.00	30.118 
06:25	49.4	49.4	49.4	94	47.7	0	0	---	0.00	30.118 
06:30	49.5	49.5	49.5	94	47.8	0	0	---	0.00	30.107 
06:35	49.6	49.6	49.6	94	47.9	0	0	---	0.00	30.107 
06:40	49.8	49.8	49.8	94	48.1	0	0	---	0.00	30.107 
06:45	49.9	49.9	49.9	94	48.2	0	0	---	0.00	30.111 
06:50	49.9	49.9	49.9	94	48.2	0	0	---	0.00	30.111 
06:55	50.1	50.1	50.1	94	48.4	0	0	---	0.00	30.111 
07:00	50.1	50.1	50.1	94	48.4	0	0	---	0.00	30.104 
07:05	50.2	50.2	50.2	94	48.5	0	0	---	0.00	30.104 
07:10	50.5	50.5	50.5	94	48.8	0	1	90	0.00	30.104 
07:15	50.8	50.8	50.8	94	49.1	0	1	248	0.00	30.096 
07:20	51.3	51.3	51.3	94	49.6	0	2	248	0.00	30.096 
07:25	51.7	51.7	51.7	94	50.0	0	0	---	0.00	30.096 
07:30	52.2	52.2	52.2	94	50.5	0	1	248	0.00	30.119 
07:35	52.5	52.5	52.5	93	50.5	0	0	---	0.00	30.119 
07:40	52.8	52.8	52.8	92	50.5	0	0	---	0.00	30.119 
07:45	52.8	52.8	52.8	92	50.5	0	0	---	0.00	30.134 
07:50	52.8	52.8	52.8	91	50.2	0	0	---	0.00	30.134 
07:55	52.8	52.8	52.8	91	50.2	0	0	---	0.00	30.134 
08:00	52.9	52.9	52.9	90	50.0	0	0	---	0.00	30.140 
08:05	52.9	52.9	52.9	90	50.0	0	0	---	0.00	30.140 
08:10	53.1	53.1	53.1	90	50.2	0	0	---	0.00	30.140 
08:15	53.2	53.2	53.2	90	50.3	0	0	---	0.00	30.157 
08:20	53.5	53.5	53.5	90	50.6	0	0	---	0.00	30.157 
08:25	53.9	53.9	53.9	91	51.3	0	0	---	0.00	30.157 
08:30	54.8	54.8	54.8	90	51.9	0	1	248	0.00	30.149 
08:35	55.7	55.7	55.7	86	51.6	0	1	248	0.00	30.149 
08:40	56.5	56.5	56.5	84	51.7	0	0	---	0.00	30.149 
08:45	56.9	56.9	56.9	82	51.5	0	0	---	0.00	30.157 
08:50	57.3	57.3	57.3	81	51.5	0	0	---	0.00	30.157 
08:55	57.6	57.6	57.6	79	51.1	0	0	---	0.00	30.157 
09:00	58.0	58.0	58.0	79	51.5	0	0	---	0.00	30.162 
09:05	58.4	58.4	58.4	78	51.6	0	0	---	0.00	30.162 
09:10	58.9	58.9	58.9	77	51.7	0	0	---	0.00	30.162 
09:15	59.2	59.2	59.2	77	52.0	0	0	---	0.00	30.167 
09:20	59.6	59.6	59.6	76	52.0	0	0	---	0.00	30.167 
09:25	59.9	59.9	59.9	75	52.0	0	0	---	0.00	30.167 
09:30	60.2	60.2	60.2	75	52.2	0	1	248	0.00	30.161 
09:35	60.5	60.5	60.5	75	52.5	0	1	248	0.00	30.161 
09:40	61.2	61.2	61.2	75	53.2	0	0	---	0.00	30.161 
09:45	61.6	61.6	61.6	74	53.2	0	1	248	0.00	30.159 
09:50	62.1	62.1	62.1	74	53.7	0	2	248	0.00	30.159 
09:55	62.6	62.6	62.6	72	53.4	0	1	248	0.00	30.159 
10:00	62.9	62.9	62.9	71	53.3	0	2	248	0.00	30.172 
10:05	63.1	63.1	63.1	70	53.2	0	1	248	0.00	30.172 
10:10	63.1	63.1	63.1	71	53.5	0	2	248	0.00	30.172 
10:15	63.1	63.1	63.1	71	53.5	0	1	248	0.00	30.177 
10:20	63.4	63.4	63.4	71	53.8	0	1	248	0.00	30.177 
10:25	63.7	63.7	63.7	70	53.7	0	1	248	0.00	30.177 
10:30	64.7	64.7	64.7	68	53.9	0	1	248	0.00	30.172 
10:35	65.6	65.6	65.6	65	53.5	0	2	248	0.00	30.172 
10:40	66.4	66.4	66.4	64	53.8	0	2	248	0.00	30.172 
10:45	67.1	67.1	67.1	64	54.5	0	2	248	0.00	30.168 
10:50	67.6	67.6	67.6	63	54.5	0	1	248	0.00	30.168 
10:55	67.9	67.9	67.9	62	54.4	0	2	248	0.00	30.168 
11:00	68.4	68.4	68.4	61	54.4	0	3	248	0.00	30.155 
11:05	68.8	68.8	68.8	62	55.2	0	2	248	0.00	30.155 
11:10	69.1	69.1	69.1	61	55.1	0	2	248	0.00	30.155 
11:15	69.6	69.6	69.6	60	55.1	1	3	90	0.00	30.139 
11:20	70.1	70.1	70.1	59	55.1	1	2	158	0.00	30.139 
11:25	70.3	70.3	70.3	60	55.7	1	4	248	0.00	30.139 
11:30	70.9	70.9	70.9	58	55.4	0	3	292	0.00	30.143 
11:35	71.1	71.1	71.1	57	55.1	1	3	292	0.00	30.143 
11:40	71.6	71.6	71.6	57	55.5	0	1	22	0.00	30.143 
11:45	72.3	72.3	72.3	56	55.7	0	2	22	0.00	30.133 
11:50	73.2	73.2	73.2	55	56.0	0	1	22	0.00	30.133 
11:55	73.7	73.7	73.7	54	56.0	1	3	248	0.00	30.133 
12:00	74.4	74.4	74.4	54	56.7	0	3	112	0.00	30.131 
12:05	74.7	74.7	74.7	51	55.4	1	4	270	0.00	30.131 
12:10	75.1	75.1	77.6	52	56.3	1	3	270	0.00	30.131 
12:15	75.8	75.8	78.0	49	55.3	1	4	225	0.00	30.128 
12:20	76.1	76.1	78.1	50	56.1	0	2	225	0.00	30.128 
12:25	76.7	76.7	78.4	49	56.1	0	2	225	0.00	30.128 
12:30	76.7	76.7	78.4	47	54.9	1	4	248	0.00	30.131 
12:35	76.7	76.7	78.3	46	54.3	1	3	315	0.00	30.131 
12:40	76.7	76.7	78.4	48	55.5	1	2	315	0.00	30.131 
12:45	76.5	76.5	78.3	48	55.3	1	3	270	0.00	30.131 
12:50	76.8	76.8	78.4	47	55.0	0	3	270	0.00	30.131 
12:55	77.0	77.0	78.5	47	55.2	0	2	270	0.00	30.131 
13:00	77.2	77.2	78.6	47	55.4	1	4	270	0.00	30.133 
13:05	77.2	77.2	78.6	46	54.8	1	4	292	0.00	30.133 
13:10	77.6	77.6	78.8	46	55.2	0	2	292	0.00	30.133 
13:15	77.9	77.9	79.0	46	55.4	0	2	292	0.00	30.130 
13:20	77.9	77.9	79.0	46	55.4	1	3	225	0.00	30.130 
13:25	77.7	77.7	78.9	46	55.2	1	3	225	0.00	30.130 
13:30	77.2	77.2	78.6	46	54.8	1	4	225	0.00	30.125 
13:35	77.2	77.2	78.6	47	55.4	0	4	270	0.00	30.125 
13:40	77.2	77.2	78.6	47	55.4	1	5	270	0.00	30.125 
13:45	77.4	77.4	78.7	47	55.6	1	4	270	0.00	30.128 
13:50	77.6	77.6	78.9	49	56.9	1	5	270	0.00	30.128 
13:55	77.6	77.6	78.8	46	55.2	1	5	248	0.00	30.128 
14:00	77.4	77.4	78.7	46	55.0	2	6	270	0.00	30.137 
14:05	77.7	77.7	78.9	46	55.2	1	3	270	0.00	30.137 
14:10	78.1	78.1	79.0	45	55.0	1	6	270	0.00	30.137 
14:15	78.6	78.6	79.3	44	54.8	1	4	248	0.00	30.136 
14:20	78.6	78.6	79.3	44	54.8	1	4	292	0.00	30.136 
14:25	79.0	79.0	79.5	43	54.6	1	4	292	0.00	30.136 
14:30	78.8	78.8	79.4	44	55.0	1	4	270	0.00	30.122 
14:35	78.6	78.6	79.4	45	55.5	2	4	270	0.00	30.122 
14:40	78.3	78.3	79.2	46	55.8	1	4	315	0.00	30.122 
14:45	78.6	78.6	79.5	47	56.7	1	3	292	0.00	30.120 
14:50	79.0	79.0	79.8	47	57.0	1	3	292	0.00	30.120 
14:55	79.2	79.2	79.9	47	57.2	1	3	292	0.00	30.120 
15:00	79.4	79.4	80.1	48	58.0	1	2	292	0.00	30.119 
15:05	79.4	79.4	80.1	48	58.0	1	3	292	0.00	30.119 
15:10	78.8	78.8	79.7	49	58.0	2	4	270	0.00	30.119 
15:15	78.3	78.3	79.4	50	58.1	1	3	270	0.00	30.115 
15:20	78.1	78.1	79.3	50	57.9	0	2	270	0.00	30.115 
15:25	78.3	78.3	79.4	50	58.1	0	2	270	0.00	30.115 
15:30	78.5	78.5	79.6	50	58.3	1	4	292	0.00	30.117 
15:35	78.5	78.5	79.6	50	58.3	1	5	270	0.00	30.117 
15:40	78.3	78.3	79.4	50	58.1	2	5	270	0.00	30.117 
15:45	78.1	78.1	79.3	50	57.9	2	5	292	0.00	30.133 
15:50	77.7	77.7	79.1	51	58.1	1	4	270	0.00	30.133 
15:55	77.7	77.7	79.1	52	58.6	1	5	270	0.00	30.133 
16:00	77.7	77.7	79.2	53	59.2	1	4	270	0.00	30.127 
16:05	77.9	77.9	79.3	53	59.4	2	4	270	0.00	30.127 
16:10	77.7	77.7	79.2	53	59.2	1	4	270	0.00	30.127 
16:15	77.7	77.7	79.2	53	59.2	1	3	292	0.00	30.126 
16:20	77.7	77.7	79.2	54	59.7	1	4	292	0.00	30.126 
16:25	77.6	77.6	79.1	54	59.6	1	3	292	0.00	30.126 
16:30	77.4	77.4	79.0	54	59.4	1	4	338	0.00	30.127 
16:35	77.2	77.2	78.8	54	59.2	0	2	270	0.00	30.127 
16:40	77.0	77.0	78.7	54	59.1	1	3	292	0.00	30.127 
16:45	77.0	77.0	78.7	54	59.1	1	3	292	0.00	30.110 
16:50	77.2	77.2	78.8	54	59.2	0	1	292	0.00	30.110 
16:55	77.4	77.4	79.0	54	59.4	0	2	292	0.00	30.110 
17:00	77.6	77.6	79.1	54	59.6	0	1	292	0.00	30.091 
17:05	77.7	77.7	79.2	54	59.7	0	1	292	0.00	30.091 
17:10	77.6	77.6	79.1	54	59.6	0	1	292	0.00	30.091 
17:15	77.6	77.6	79.1	53	59.1	0	1	292	0.00	30.076 
17:20	77.6	77.6	79.2	55	60.1	0	0	---	0.00	30.076 
17:25	77.4	77.4	79.0	54	59.4	0	1	292	0.00	30.076 
17:30	77.4	77.4	79.0	54	59.4	0	2	292	0.00	30.087 
17:35	77.2	77.2	78.8	54	59.2	0	0	---	0.00	30.087 
17:40	77.0	77.0	78.7	55	59.6	0	0	---	0.00	30.087 
17:45	76.8	76.8	78.6	56	59.9	0	0	---	0.00	30.084 
17:50	76.8	76.8	78.6	57	60.4	0	0	---	0.00	30.084 
17:55	76.8	76.8	78.6	56	59.9	0	0	---	0.00	30.084 
18:00	76.8	76.8	78.6	56	59.9	0	1	292	0.00	30.083 
18:05	76.8	76.8	78.6	56	59.9	0	1	292	0.00	30.083 
18:10	76.7	76.7	78.5	57	60.3	0	0	---	0.00	30.083 
18:15	76.7	76.7	78.5	57	60.3	0	2	292	0.00	30.065 
18:20	76.5	76.5	78.4	59	61.1	0	0	---	0.00	30.065 
18:25	76.1	76.1	78.1	60	61.2	0	0	---	0.00	30.065 
18:30	76.0	76.0	78.0	60	61.1	0	0	---	0.00	30.076 
18:35	75.6	75.6	77.7	61	61.2	0	0	---	0.00	30.076 
18:40	75.4	75.4	77.6	61	61.0	0	0	---	0.00	30.076 
18:45	75.3	75.3	77.5	62	61.4	0	1	292	0.00	30.078 
18:50	74.9	74.9	74.9	63	61.4	0	0	---	0.00	30.078 
18:55	74.7	74.7	74.7	64	61.7	0	0	---	0.00	30.078 
19:00	74.6	74.6	74.6	64	61.6	0	0	---	0.00	30.092 
19:05	74.6	74.6	74.6	64	61.6	0	1	292	0.00	30.092 
19:10	74.6	74.6	74.6	64	61.6	0	0	---	0.00	30.092 
19:15	74.6	74.6	74.6	64	61.6	0	1	292	0.00	30.090 
19:20	74.6	74.6	74.6	64	61.6	0	0	---	0.00	30.090 
19:25	74.4	74.4	74.4	64	61.4	0	1	292	0.00	30.090 
19:30	74.4	74.4	74.4	65	61.8	0	0	---	0.00	30.091 
19:35	74.0	74.0	74.0	65	61.5	0	0	---	0.00	30.091 
19:40	73.9	73.9	73.9	66	61.8	0	0	---	0.00	30.091 
19:45	73.7	73.7	73.7	66	61.6	0	0	---	0.00	30.093 
19:50	73.3	73.3	73.3	67	61.7	0	1	292	0.00	30.093 
19:55	73.0	73.0	73.0	68	61.8	0	0	---	0.00	30.093 
20:00	72.8	72.8	72.8	68	61.6	0	0	---	0.00	30.095 
20:05	72.7	72.7	72.7	69	61.9	0	0	---	0.00	30.095 
20:10	72.3	72.3	72.3	70	62.0	0	0	---	0.00	30.095 
20:15	72.1	72.1	72.1	70	61.8	0	0	---	0.00	30.091 
20:20	72.0	72.0	72.0	71	62.1	0	0	---	0.00	30.091 
20:25	71.6	71.6	71.6	72	62.1	0	0	---	0.00	30.091 
20:30	71.5	71.5	71.5	73	62.4	0	1	292	0.00	30.101 
20:35	71.1	71.1	71.1	74	62.4	0	1	292	0.00	30.101 
20:40	70.8	70.8	70.8	75	62.5	0	2	292	0.00	30.101 
20:45	70.6	70.6	70.6	76	62.7	0	1	292	0.00	30.106 
20:50	70.3	70.3	70.3	77	62.7	0	3	292	0.00	30.106 
20:55	70.1	70.1	70.1	78	62.9	0	3	292	0.00	30.106 
21:00	69.8	69.8	69.8	79	63.0	2	5	292	0.00	30.121 
21:05	69.4	69.4	69.4	80	63.0	0	2	292	0.00	30.121 
21:10	69.1	69.1	69.1	81	63.0	1	3	292	0.00	30.121 
21:15	68.8	68.8	68.8	82	63.1	1	4	315	0.00	30.125 
21:20	68.4	68.4	68.4	83	63.0	0	2	315	0.00	30.125 
21:25	67.9	67.9	67.9	84	62.9	1	4	292	0.00	30.125 
21:30	67.8	67.8	67.8	84	62.8	0	2	292	0.00	30.133 
21:35	67.4	67.4	67.4	85	62.7	1	3	292	0.00	30.133 
21:40	67.1	67.1	67.1	85	62.4	1	5	292	0.00	30.133 
21:45	66.9	66.9	66.9	86	62.6	1	4	292	0.00	30.135 
21:50	66.6	66.6	66.6	86	62.3	1	3	0	0.00	30.135 
21:55	66.4	66.4	66.4	86	62.1	1	3	315	0.00	30.135 
22:00	66.3	66.3	66.3	86	62.0	0	2	315	0.00	30.137 
22:05	66.1	66.1	66.1	86	61.8	0	2	315	0.00	30.137 
22:10	66.0	66.0	66.0	86	61.7	0	1	315	0.00	30.137 
22:15	65.8	65.8	65.8	86	61.5	0	1	315	0.00	30.135 
22:20	65.6	65.6	65.6	87	61.6	0	1	315	0.00	30.135 
22:25	65.6	65.6	65.6	87	61.6	0	1	315	0.00	30.135 
22:30	65.5	65.5	65.5	87	61.5	0	2	315	0.00	30.142 
22:35	65.5	65.5	65.5	87	61.5	0	2	0	0.00	30.142 
22:40	65.5	65.5	65.5	87	61.5	0	2	0	0.00	30.142 
22:45	65.3	65.3	65.3	87	61.3	0	1	0	0.00	30.141 
22:50	65.3	65.3	65.3	87	61.3	0	1	0	0.00	30.141 
22:55	65.2	65.2	65.2	88	61.6	0	1	0	0.00	30.141 
23:00	65.2	65.2	65.2	88	61.6	0	0	---	0.00	30.141 
23:05	65.0	65.0	65.0	88	61.4	0	0	---	0.00	30.141 
23:10	64.8	64.8	64.8	88	61.2	0	0	---	0.00	30.141 
23:15	64.7	64.7	64.7	88	61.1	0	0	---	0.00	30.143 
23:20	64.5	64.5	64.5	88	60.9	0	0	---	0.00	30.143 
23:25	64.5	64.5	64.5	89	61.2	0	0	---	0.00	30.143 
23:30	64.3	64.3	64.3	89	61.0	0	0	---	0.00	30.144 
23:35	64.2	64.2	64.2	89	60.9	0	0	---	0.00	30.144 
23:40	64.0	64.0	64.0	90	61.0	0	0	---	0.00	30.144 
23:45	64.0	64.0	64.0	90	61.0	0	0	---	0.00	30.146 
23:50	63.9	63.9	63.9	90	60.9	0	0	---	0.00	30.146 
23:55	63.7	63.7	63.7	90	60.7	0	0	---	0.00	30.146 

CoCoRaHS
IN-AL-39
A2 Web Hosting
Creative Commons License
GoDaddy
search engine by freefind advanced

loaded 2018-11-19 11:00:31 • last modified 2010-11-18 10:43:29
Privacy PolicyDisclaimer
• wx.awcolley.com is powered by PmWiki v.2002016 •
• all content (unless otherwise noted) © 2018 A W Colley